createdAt,value
2023-04-10T00:00:02.195Z,9.41
2023-04-10T00:02:30.640Z,9.41
2023-04-10T00:04:59.121Z,9.38
2023-04-10T00:07:27.708Z,9.36
2023-04-10T00:09:56.213Z,9.32
2023-04-10T00:12:31.932Z,9.30
2023-04-10T00:15:00.236Z,9.27
2023-04-10T00:17:28.594Z,9.25
2023-04-10T00:19:56.992Z,9.20
2023-04-10T00:22:25.277Z,9.18
2023-04-10T00:24:53.624Z,9.16
2023-04-10T00:27:22.004Z,9.13
2023-04-10T00:29:51.766Z,9.09
2023-04-10T00:32:20.314Z,9.06
2023-04-10T00:34:48.718Z,9.02
2023-04-10T00:37:17.593Z,8.99
2023-04-10T00:39:46.570Z,8.95
2023-04-10T00:42:17.633Z,8.92
2023-04-10T00:44:46.168Z,8.88
2023-04-10T00:47:16.954Z,8.85
2023-04-10T00:49:46.133Z,8.81
2023-04-10T00:52:14.609Z,8.79
2023-04-10T00:54:42.981Z,8.76
2023-04-10T00:57:11.963Z,8.72
2023-04-10T00:59:40.607Z,8.71
2023-04-10T01:02:13.435Z,8.70
2023-04-10T01:04:46.585Z,8.68
2023-04-10T01:07:39.893Z,8.63
2023-04-10T01:10:16.792Z,8.60
2023-04-10T01:13:07.866Z,8.54
2023-04-10T01:15:46.588Z,8.49
2023-04-10T01:18:25.614Z,8.43
2023-04-10T01:20:55.688Z,8.40
2023-04-10T01:23:55.959Z,8.33
2023-04-10T01:26:49.224Z,8.24
2023-04-10T01:29:21.126Z,8.14
2023-04-10T01:31:56.717Z,8.11
2023-04-10T01:34:31.320Z,8.03
2023-04-10T01:37:03.837Z,7.99
2023-04-10T01:39:37.234Z,7.97
2023-04-10T01:42:08.037Z,7.92
2023-04-10T01:44:43.175Z,7.91
2023-04-10T01:47:11.493Z,7.89
2023-04-10T01:49:44.500Z,7.88
2023-04-10T01:52:13.286Z,7.84
2023-04-10T01:54:43.283Z,7.80
2023-04-10T01:57:18.429Z,7.77
2023-04-10T01:59:48.096Z,7.72
2023-04-10T02:02:16.470Z,7.68
2023-04-10T02:04:46.950Z,7.66
2023-04-10T02:07:22.941Z,7.62
2023-04-10T02:09:59.816Z,7.59
2023-04-10T02:12:32.336Z,7.57
2023-04-10T02:15:05.228Z,7.52
2023-04-10T02:17:36.282Z,7.49
2023-04-10T02:20:06.623Z,7.46
2023-04-10T02:22:36.521Z,7.43
2023-04-10T02:25:07.002Z,7.36
2023-04-10T02:27:37.569Z,7.31
2023-04-10T02:30:11.694Z,7.26
2023-04-10T02:32:40.019Z,7.20
2023-04-10T02:35:08.948Z,7.13
2023-04-10T02:37:40.399Z,7.08
2023-04-10T02:40:10.515Z,7.03
2023-04-10T02:42:38.772Z,6.99
2023-04-10T02:45:10.331Z,6.95
2023-04-10T02:47:38.662Z,6.95
2023-04-10T02:50:08.082Z,6.95
2023-04-10T02:52:36.678Z,6.95
2023-04-10T02:55:08.177Z,6.95
2023-04-10T02:57:36.749Z,6.95
2023-04-10T03:00:05.783Z,6.96
2023-04-10T03:02:38.232Z,6.94
2023-04-10T03:05:08.821Z,6.95
2023-04-10T03:07:37.099Z,6.95
2023-04-10T03:10:05.926Z,6.96
2023-04-10T03:12:34.259Z,6.94
2023-04-10T03:15:03.657Z,6.93
2023-04-10T03:17:31.951Z,6.92
2023-04-10T03:20:01.672Z,6.91
2023-04-10T03:22:32.219Z,6.89
2023-04-10T03:25:01.306Z,6.85
2023-04-10T03:27:32.166Z,6.85
2023-04-10T03:30:00.822Z,6.82
2023-04-10T03:32:31.193Z,6.79
2023-04-10T03:35:01.073Z,6.77
2023-04-10T03:37:29.411Z,6.78
2023-04-10T03:39:58.131Z,6.75
2023-04-10T03:42:29.644Z,6.76
2023-04-10T03:44:57.901Z,6.72
2023-04-10T03:47:32.029Z,6.71
2023-04-10T03:50:01.773Z,6.69
2023-04-10T03:52:30.713Z,6.67
2023-04-10T03:54:59.005Z,6.67
2023-04-10T03:57:29.001Z,6.66
2023-04-10T03:59:57.258Z,6.64
2023-04-10T04:02:25.677Z,6.61
2023-04-10T04:04:54.500Z,6.59
2023-04-10T04:07:24.229Z,6.57
2023-04-10T04:09:53.751Z,6.55
2023-04-10T04:12:23.056Z,6.54
2023-04-10T04:14:51.340Z,6.54
2023-04-10T04:17:19.933Z,6.53
2023-04-10T04:19:48.227Z,6.52
2023-04-10T04:22:17.113Z,6.52
2023-04-10T04:24:46.690Z,6.49
2023-04-10T04:27:17.182Z,6.47
2023-04-10T04:29:45.470Z,6.46
2023-04-10T04:32:13.858Z,6.44
2023-04-10T04:34:45.096Z,6.42
2023-04-10T04:37:13.405Z,6.39
2023-04-10T04:39:41.662Z,6.37
2023-04-10T04:42:13.963Z,6.33
2023-04-10T04:44:42.276Z,6.32
2023-04-10T04:47:10.564Z,6.29
2023-04-10T04:49:38.880Z,6.26
2023-04-10T04:52:09.228Z,6.25
2023-04-10T04:54:37.511Z,6.23
2023-04-10T04:57:05.876Z,6.22
2023-04-10T04:59:35.558Z,6.20
2023-04-10T05:02:06.766Z,6.18
2023-04-10T05:04:37.870Z,6.16
2023-04-10T05:07:06.138Z,6.16
2023-04-10T05:09:34.440Z,6.15
2023-04-10T05:12:03.881Z,6.15
2023-04-10T05:14:32.217Z,6.14
2023-04-10T05:17:03.569Z,6.14
2023-04-10T05:19:32.204Z,6.14
2023-04-10T05:22:00.509Z,6.14
2023-04-10T05:24:28.767Z,6.13
2023-04-10T05:26:57.801Z,6.15
2023-04-10T05:29:26.192Z,6.16
2023-04-10T05:31:54.459Z,6.17
2023-04-10T05:34:24.143Z,6.18
2023-04-10T05:36:52.515Z,6.19
2023-04-10T05:39:21.027Z,6.21
2023-04-10T05:41:49.261Z,6.24
2023-04-10T05:44:17.623Z,6.25
2023-04-10T05:46:46.076Z,6.29
2023-04-10T05:49:14.436Z,6.32
2023-04-10T05:51:44.155Z,6.37
2023-04-10T05:54:15.278Z,6.41
2023-04-10T05:56:43.627Z,6.47
2023-04-10T05:59:12.449Z,6.51
2023-04-10T06:01:41.163Z,6.55
2023-04-10T06:04:12.736Z,6.60
2023-04-10T06:06:43.116Z,6.67
2023-04-10T06:09:11.411Z,6.74
2023-04-10T06:11:39.709Z,6.83
2023-04-10T06:14:08.184Z,6.91
2023-04-10T06:16:36.545Z,7.01
2023-04-10T06:19:04.982Z,7.11
2023-04-10T06:21:33.288Z,7.23
2023-04-10T06:24:02.991Z,7.34
2023-04-10T06:26:31.276Z,7.44
2023-04-10T06:29:02.005Z,7.55
2023-04-10T06:31:30.352Z,7.68
2023-04-10T06:33:58.712Z,7.81
2023-04-10T06:36:29.989Z,7.92
2023-04-10T06:38:58.368Z,8.07
2023-04-10T06:41:30.716Z,8.19
2023-04-10T06:46:29.033Z,8.45
2023-04-10T06:48:57.297Z,8.57
2023-04-10T06:51:29.359Z,8.71
2023-04-10T06:53:57.614Z,8.85
2023-04-10T06:56:27.290Z,8.97
2023-04-10T06:58:56.367Z,9.13
2023-04-10T07:01:26.045Z,9.27
2023-04-10T07:03:54.835Z,9.44
2023-04-10T07:06:23.128Z,9.61
2023-04-10T07:08:52.121Z,9.75
2023-04-10T07:11:20.627Z,9.90
2023-04-10T07:13:53.861Z,10.04
2023-04-10T07:16:29.480Z,10.19
2023-04-10T07:18:57.854Z,10.32
2023-04-10T07:21:27.304Z,10.48
2023-04-10T07:23:55.609Z,10.63
2023-04-10T07:26:24.016Z,10.80
2023-04-10T07:28:53.940Z,10.95
2023-04-10T07:31:28.073Z,11.11
2023-04-10T07:33:56.528Z,11.27
2023-04-10T07:36:27.752Z,11.45
2023-04-10T07:38:56.478Z,11.65
2023-04-10T07:41:25.506Z,11.85
2023-04-10T07:43:58.149Z,12.06
2023-04-10T07:46:26.781Z,12.26
2023-04-10T07:48:55.963Z,12.44
2023-04-10T07:51:24.951Z,12.63
2023-04-10T07:53:53.221Z,12.78
2023-04-10T07:56:23.304Z,12.97
2023-04-10T07:58:54.526Z,13.12
2023-04-10T08:01:22.866Z,13.24
2023-04-10T08:03:52.134Z,13.36
2023-04-10T08:06:20.509Z,13.52
2023-04-10T08:08:49.019Z,13.62
2023-04-10T08:11:27.557Z,13.69
2023-04-10T08:13:59.387Z,13.84
2023-04-10T08:16:29.073Z,13.99
2023-04-10T08:18:58.158Z,14.13
2023-04-10T08:21:28.522Z,14.23
2023-04-10T08:23:59.415Z,14.33
2023-04-10T08:26:28.826Z,14.45
2023-04-10T08:29:00.906Z,14.58
2023-04-10T08:31:30.508Z,14.69
2023-04-10T08:33:59.482Z,14.78
2023-04-10T08:36:28.961Z,14.87
2023-04-10T08:38:57.320Z,15.00
2023-04-10T08:41:25.630Z,15.14
2023-04-10T08:43:54.280Z,15.29
2023-04-10T08:46:28.626Z,15.42
2023-04-10T08:49:06.498Z,15.46
2023-04-10T08:51:41.305Z,15.53
2023-04-10T08:54:15.762Z,15.58
2023-04-10T08:56:48.639Z,15.60
2023-04-10T08:59:17.231Z,15.65
2023-04-10T09:01:47.823Z,15.69
2023-04-10T09:04:17.118Z,15.73
2023-04-10T09:06:45.963Z,15.78
2023-04-10T09:09:14.291Z,15.79
2023-04-10T09:12:04.318Z,15.73
2023-04-10T09:14:34.625Z,15.74
2023-04-10T09:17:19.150Z,15.70
2023-04-10T09:19:49.320Z,15.68
2023-04-10T09:22:18.257Z,15.60
2023-04-10T09:24:48.333Z,15.61
2023-04-10T09:27:32.378Z,15.55
2023-04-10T09:30:02.444Z,15.58
2023-04-10T09:32:43.027Z,15.57
2023-04-10T09:35:14.027Z,15.60
2023-04-10T09:37:45.507Z,15.63
2023-04-10T09:40:24.485Z,15.64
2023-04-10T09:42:53.482Z,15.70
2023-04-10T09:45:23.025Z,15.78
2023-04-10T09:48:13.589Z,15.87
2023-04-10T09:50:42.493Z,15.98
2023-04-10T09:53:14.952Z,16.09
2023-04-10T09:55:44.571Z,16.23
2023-04-10T09:58:13.458Z,16.38
2023-04-10T10:00:43.655Z,16.53
2023-04-10T10:03:15.350Z,16.49
2023-04-10T10:05:46.282Z,16.54
2023-04-10T10:08:16.590Z,16.58
2023-04-10T10:10:49.162Z,16.66
2023-04-10T10:13:23.703Z,16.76
2023-04-10T10:16:01.108Z,16.84
2023-04-10T10:18:41.505Z,16.94
2023-04-10T10:21:11.223Z,17.07
2023-04-10T10:23:40.619Z,17.22
2023-04-10T10:26:11.786Z,17.34
2023-04-10T10:28:42.764Z,17.47
2023-04-10T10:31:12.459Z,17.63
2023-04-10T10:33:43.092Z,17.78
2023-04-10T10:36:14.050Z,17.89
2023-04-10T10:38:58.894Z,18.02
2023-04-10T10:41:36.150Z,18.15
2023-04-10T10:44:17.611Z,18.28
2023-04-10T10:46:51.425Z,18.37
2023-04-10T10:49:21.216Z,18.34
2023-04-10T10:51:52.456Z,18.40
2023-04-10T10:54:33.859Z,18.40
2023-04-10T10:57:05.531Z,18.43
2023-04-10T10:59:56.787Z,18.50
2023-04-10T11:02:25.433Z,18.60
2023-04-10T11:04:55.488Z,18.67
2023-04-10T11:07:56.880Z,18.71
2023-04-10T11:11:02.266Z,18.76
2023-04-10T11:13:31.137Z,18.67
2023-04-10T11:16:01.370Z,18.60
2023-04-10T11:19:14.357Z,18.57
2023-04-10T11:22:08.750Z,18.53
2023-04-10T11:25:03.196Z,18.59
2023-04-10T11:27:48.747Z,18.69
2023-04-10T11:30:35.475Z,18.81
2023-04-10T11:33:05.763Z,18.90
2023-04-10T11:35:35.623Z,18.99
2023-04-10T11:38:17.289Z,19.08
2023-04-10T11:41:04.551Z,19.23
2023-04-10T11:43:33.774Z,19.31
2023-04-10T11:46:08.626Z,19.41
2023-04-10T11:48:38.053Z,19.45
2023-04-10T11:51:11.793Z,19.43
2023-04-10T11:53:42.402Z,19.46
2023-04-10T11:56:18.837Z,19.46
2023-04-10T11:58:50.245Z,19.48
2023-04-10T12:01:23.477Z,19.47
2023-04-10T12:03:52.644Z,19.48
2023-04-10T12:06:21.765Z,19.52
2023-04-10T12:08:51.525Z,19.53
2023-04-10T12:11:21.437Z,19.53
2023-04-10T12:13:53.375Z,19.49
2023-04-10T12:16:22.512Z,19.52
2023-04-10T12:18:52.636Z,19.55
2023-04-10T12:21:21.925Z,19.57
2023-04-10T12:23:52.210Z,19.51
2023-04-10T12:26:20.815Z,19.47
2023-04-10T12:28:54.097Z,19.35
2023-04-10T12:31:29.374Z,19.33
2023-04-10T12:33:58.626Z,19.42
2023-04-10T12:36:30.308Z,19.42
2023-04-10T12:39:02.108Z,19.36
2023-04-10T12:41:32.639Z,19.42
2023-04-10T12:44:12.520Z,19.29
2023-04-10T12:46:42.032Z,19.35
2023-04-10T12:49:12.477Z,19.44
2023-04-10T12:51:48.045Z,19.42
2023-04-10T12:54:32.127Z,19.50
2023-04-10T12:57:01.501Z,19.56
2023-04-10T12:59:30.818Z,19.63
2023-04-10T13:01:59.346Z,19.73
2023-04-10T13:04:28.348Z,19.76
2023-04-10T13:06:57.142Z,19.84
2023-04-10T13:09:25.561Z,19.73
2023-04-10T13:11:56.833Z,19.72
2023-04-10T13:14:25.116Z,19.73
2023-04-10T13:16:53.448Z,19.76
2023-04-10T13:19:21.790Z,19.76
2023-04-10T13:21:50.769Z,19.74
2023-04-10T13:24:19.151Z,19.77
2023-04-10T13:26:47.480Z,19.72
2023-04-10T13:29:17.286Z,19.72
2023-04-10T13:31:45.791Z,19.66
2023-04-10T13:34:14.138Z,19.59
2023-04-10T13:39:11.061Z,19.63
2023-04-10T13:41:42.410Z,19.62
2023-04-10T13:44:10.902Z,19.59
2023-04-10T13:46:40.756Z,19.62
2023-04-10T13:49:09.180Z,19.69
2023-04-10T13:51:37.530Z,19.64
2023-04-10T13:54:06.553Z,19.71
2023-04-10T13:56:37.084Z,19.75
2023-04-10T13:59:05.909Z,19.81
2023-04-10T14:01:34.416Z,19.89
2023-04-10T14:04:04.447Z,19.85
2023-04-10T14:06:39.018Z,19.73
2023-04-10T14:09:07.462Z,19.66
2023-04-10T14:11:35.807Z,19.70
2023-04-10T14:14:04.253Z,19.70
2023-04-10T14:16:32.627Z,19.71
2023-04-10T14:19:00.907Z,19.70
2023-04-10T14:21:37.344Z,19.67
2023-04-10T14:24:05.761Z,19.73
2023-04-10T14:26:39.743Z,19.76
2023-04-10T14:29:09.080Z,19.83
2023-04-10T14:31:47.102Z,19.87
2023-04-10T14:34:19.267Z,19.85
2023-04-10T14:36:49.069Z,19.77
2023-04-10T14:39:17.410Z,19.80
2023-04-10T14:41:45.748Z,19.74
2023-04-10T14:44:14.064Z,19.75
2023-04-10T14:46:42.476Z,19.75
2023-04-10T14:49:12.167Z,19.66
2023-04-10T14:51:40.619Z,19.61
2023-04-10T14:54:10.512Z,19.58
2023-04-10T14:56:41.337Z,19.54
2023-04-10T14:59:09.745Z,19.53
2023-04-10T15:01:38.263Z,19.45
2023-04-10T15:04:06.878Z,19.38
2023-04-10T15:06:41.164Z,19.26
2023-04-10T15:09:11.124Z,19.17
2023-04-10T15:11:39.539Z,19.10
2023-04-10T15:14:08.837Z,19.09
2023-04-10T15:16:37.499Z,19.10
2023-04-10T15:19:05.926Z,19.08
2023-04-10T15:21:35.072Z,19.09
2023-04-10T15:24:03.424Z,19.12
2023-04-10T15:26:33.278Z,19.14
2023-04-10T15:29:01.767Z,19.11
2023-04-10T15:31:35.769Z,19.12
2023-04-10T15:34:04.246Z,19.15
2023-04-10T15:36:33.157Z,19.13
2023-04-10T15:39:03.708Z,19.07
2023-04-10T15:41:33.544Z,19.02
2023-04-10T15:44:02.006Z,18.98
2023-04-10T15:46:32.495Z,18.95
2023-04-10T15:49:01.608Z,18.93
2023-04-10T15:51:35.212Z,18.90
2023-04-10T15:54:04.944Z,18.85
2023-04-10T15:56:34.640Z,18.75
2023-04-10T15:59:03.072Z,18.69
2023-04-10T16:01:34.273Z,18.60
2023-04-10T16:04:02.802Z,18.50
2023-04-10T16:06:31.308Z,18.39
2023-04-10T16:09:04.718Z,18.35
2023-04-10T16:11:37.743Z,18.25
2023-04-10T16:14:06.324Z,18.24
2023-04-10T16:16:34.804Z,18.21
2023-04-10T16:19:03.148Z,18.14
2023-04-10T16:21:31.568Z,18.12
2023-04-10T16:24:01.036Z,18.08
2023-04-10T16:26:29.537Z,18.04
2023-04-10T16:28:59.440Z,17.99
2023-04-10T16:31:27.861Z,17.90
2023-04-10T16:33:56.604Z,17.85
2023-04-10T16:36:25.073Z,17.80
2023-04-10T16:38:53.673Z,17.80
2023-04-10T16:41:22.858Z,17.74
2023-04-10T16:43:51.256Z,17.71
2023-04-10T16:46:21.990Z,17.65
2023-04-10T16:48:51.256Z,17.64
2023-04-10T16:51:20.037Z,17.59
2023-04-10T16:53:48.420Z,17.55
2023-04-10T16:56:16.768Z,17.48
2023-04-10T16:58:45.137Z,17.43
2023-04-10T17:01:25.548Z,17.39
2023-04-10T17:03:55.182Z,17.36
2023-04-10T17:06:23.788Z,17.32
2023-04-10T17:08:52.291Z,17.30
2023-04-10T17:11:20.725Z,17.28
2023-04-10T17:13:49.070Z,17.25
2023-04-10T17:16:17.593Z,17.24
2023-04-10T17:18:47.382Z,17.20
2023-04-10T17:21:15.991Z,17.17
2023-04-10T17:23:44.649Z,17.14
2023-04-10T17:26:17.631Z,17.10
2023-04-10T17:28:46.556Z,17.06
2023-04-10T17:31:15.490Z,17.01
2023-04-10T17:33:44.002Z,16.94
2023-04-10T17:36:14.778Z,16.86
2023-04-10T17:38:43.711Z,16.78
2023-04-10T17:41:15.619Z,16.72
2023-04-10T17:43:44.013Z,16.66
2023-04-10T17:46:15.820Z,16.58
2023-04-10T17:48:44.632Z,16.51
2023-04-10T17:51:14.377Z,16.41
2023-04-10T17:53:42.851Z,16.33
2023-04-10T17:56:19.665Z,16.23
2023-04-10T17:58:48.116Z,16.14
2023-04-10T18:01:31.074Z,16.05
2023-04-10T18:04:00.244Z,15.96
2023-04-10T18:06:30.542Z,15.86
2023-04-10T18:08:59.072Z,15.77
2023-04-10T18:11:28.499Z,15.70
2023-04-10T18:13:56.877Z,15.62
2023-04-10T18:16:25.336Z,15.51
2023-04-10T18:18:53.988Z,15.42
2023-04-10T18:21:26.846Z,15.31
2023-04-10T18:23:56.797Z,15.24
2023-04-10T18:26:25.198Z,15.18
2023-04-10T18:28:53.787Z,15.12
2023-04-10T18:31:30.242Z,15.05
2023-04-10T18:34:06.962Z,14.99
2023-04-10T18:36:36.696Z,14.89
2023-04-10T18:39:06.554Z,14.82
2023-04-10T18:41:35.256Z,14.73
2023-04-10T18:44:05.704Z,14.67
2023-04-10T18:46:36.313Z,14.60
2023-04-10T18:49:04.881Z,14.52
2023-04-10T18:51:35.242Z,14.46
2023-04-10T18:54:06.200Z,14.40
2023-04-10T18:56:35.939Z,14.35
2023-04-10T18:59:05.853Z,14.29
2023-04-10T19:01:35.124Z,14.25
2023-04-10T19:04:03.860Z,14.20
2023-04-10T19:06:32.934Z,14.14
2023-04-10T19:09:01.349Z,14.12
2023-04-10T19:11:31.266Z,14.06
2023-04-10T19:13:59.603Z,14.03
2023-04-10T19:16:28.234Z,13.99
2023-04-10T19:18:57.365Z,13.94
2023-04-10T19:21:30.290Z,13.90
2023-04-10T19:23:58.593Z,13.84
2023-04-10T19:26:27.106Z,13.81
2023-04-10T19:28:57.111Z,13.76
2023-04-10T19:31:29.683Z,13.71
2023-04-10T19:36:37.498Z,13.63
2023-04-10T19:39:12.428Z,13.58
2023-04-10T19:41:42.286Z,13.54
2023-04-10T19:44:12.158Z,13.49
2023-04-10T19:46:40.737Z,13.46
2023-04-10T19:49:09.103Z,13.42
2023-04-10T19:51:37.405Z,13.36
2023-04-10T19:54:05.904Z,13.32
2023-04-10T19:56:37.830Z,13.27
2023-04-10T19:59:06.128Z,13.22
2023-04-10T20:01:36.053Z,13.16
2023-04-10T20:04:04.614Z,13.14
2023-04-10T20:06:35.747Z,13.08
2023-04-10T20:09:04.226Z,13.01
2023-04-10T20:11:32.818Z,12.97
2023-04-10T20:14:01.343Z,12.93
2023-04-10T20:16:29.741Z,12.88
2023-04-10T20:18:59.476Z,12.83
2023-04-10T20:21:33.288Z,12.74
2023-04-10T20:24:01.643Z,12.73
2023-04-10T20:26:29.946Z,12.67
2023-04-10T20:28:58.267Z,12.62
2023-04-10T20:31:37.930Z,12.60
2023-04-10T20:34:07.726Z,12.57
2023-04-10T20:36:36.681Z,12.55
2023-04-10T20:39:05.238Z,12.51
2023-04-10T20:41:33.564Z,12.48
2023-04-10T20:44:01.881Z,12.46
2023-04-10T20:46:31.096Z,12.43
2023-04-10T20:48:59.418Z,12.40
2023-04-10T20:51:29.686Z,12.35
2023-04-10T20:53:57.937Z,12.35
2023-04-10T20:56:33.238Z,12.34
2023-04-10T20:59:08.857Z,12.30
2023-04-10T21:01:37.299Z,12.26
2023-04-10T21:04:06.263Z,12.26
2023-04-10T21:06:38.759Z,12.21
2023-04-10T21:09:07.492Z,12.24
2023-04-10T21:11:35.838Z,12.24
2023-04-10T21:14:04.173Z,12.21
2023-04-10T21:16:37.683Z,12.19
2023-04-10T21:19:06.003Z,12.17
2023-04-10T21:21:34.497Z,12.15
2023-04-10T21:24:04.309Z,12.13
2023-04-10T21:26:32.676Z,12.11
2023-04-10T21:29:01.028Z,12.09
2023-04-10T21:31:29.358Z,12.10
2023-04-10T21:33:57.622Z,12.08
2023-04-10T21:36:29.154Z,12.06
2023-04-10T21:38:57.564Z,12.04
2023-04-10T21:41:27.680Z,12.04
2023-04-10T21:43:56.526Z,12.03
2023-04-10T21:46:25.008Z,12.01
2023-04-10T21:48:53.786Z,12.00
2023-04-10T21:51:22.883Z,11.98
2023-04-10T21:53:51.349Z,11.98
2023-04-10T21:56:19.650Z,11.96
2023-04-10T21:58:49.318Z,12.16
2023-04-10T22:01:17.719Z,12.15
2023-04-10T22:03:46.097Z,12.09
2023-04-10T22:06:14.461Z,12.04
2023-04-10T22:08:42.827Z,11.99
2023-04-10T22:11:11.124Z,11.99
2023-04-10T22:13:39.379Z,11.95
2023-04-10T22:16:09.580Z,11.94
2023-04-10T22:18:37.850Z,11.92
2023-04-10T22:21:06.444Z,11.90
2023-04-10T22:23:34.742Z,11.87
2023-04-10T22:26:03.041Z,11.82
2023-04-10T22:28:31.318Z,11.84
2023-04-10T22:30:59.727Z,11.82
2023-04-10T22:33:29.521Z,11.81
2023-04-10T22:35:57.961Z,11.79
2023-04-10T22:38:26.394Z,11.77
2023-04-10T22:40:56.019Z,11.73
2023-04-10T22:43:24.376Z,11.72
2023-04-10T22:45:52.802Z,11.69
2023-04-10T22:48:21.416Z,11.67
2023-04-10T22:50:51.081Z,11.64
2023-04-10T22:53:19.422Z,11.62
2023-04-10T22:55:47.724Z,11.60
2023-04-10T22:58:16.076Z,11.57
2023-04-10T23:00:44.368Z,11.56
2023-04-10T23:03:12.725Z,11.54
2023-04-10T23:05:41.114Z,11.52
2023-04-10T23:08:10.778Z,11.50
2023-04-10T23:10:39.119Z,11.46
2023-04-10T23:13:07.408Z,11.46
2023-04-10T23:15:35.934Z,11.41
2023-04-10T23:18:04.552Z,11.44
2023-04-10T23:20:32.848Z,11.42
2023-04-10T23:23:01.223Z,11.41
2023-04-10T23:25:31.098Z,11.39
2023-04-10T23:27:59.961Z,11.38
2023-04-10T23:30:29.042Z,11.37
2023-04-10T23:32:57.594Z,11.34
2023-04-10T23:35:28.796Z,11.32
2023-04-10T23:37:57.778Z,11.31
2023-04-10T23:40:26.083Z,11.29
2023-04-10T23:42:58.811Z,11.30
2023-04-10T23:45:27.237Z,11.31
2023-04-10T23:47:55.587Z,11.32
2023-04-10T23:50:23.935Z,11.29
2023-04-10T23:52:52.856Z,11.29
2023-04-10T23:55:21.662Z,11.29
2023-04-10T23:57:49.976Z,11.29
